createdAt,value
2018-08-10T00:02:08.055Z,6.07
2018-08-10T00:04:38.561Z,8.63
2018-08-10T00:07:08.501Z,6.47
2018-08-10T00:09:37.990Z,9.27
2018-08-10T00:12:07.461Z,5.40
2018-08-10T00:14:37.189Z,10.20
2018-08-10T00:17:06.957Z,7.40
2018-08-10T00:19:36.779Z,8.43
2018-08-10T00:22:07.014Z,6.13
2018-08-10T00:24:36.503Z,9.40
2018-08-10T00:27:06.343Z,5.23
2018-08-10T00:29:36.394Z,7.47
2018-08-10T00:32:06.815Z,7.07
2018-08-10T00:34:37.563Z,10.40
2018-08-10T00:37:07.550Z,9.67
2018-08-10T00:39:37.382Z,5.50
2018-08-10T00:42:07.846Z,6.03
2018-08-10T00:44:37.762Z,6.80
2018-08-10T00:47:07.663Z,7.40
2018-08-10T00:49:37.590Z,7.13
2018-08-10T00:52:07.471Z,12.60
2018-08-10T00:54:37.586Z,7.53
2018-08-10T00:57:08.350Z,9.27
2018-08-10T00:59:38.024Z,8.23
2018-08-10T01:02:08.003Z,7.80
2018-08-10T01:04:38.677Z,9.53
2018-08-10T01:07:08.260Z,6.63
2018-08-10T01:09:37.909Z,7.90
2018-08-10T01:12:07.905Z,7.97
2018-08-10T01:14:37.564Z,6.70
2018-08-10T01:17:07.123Z,6.73
2018-08-10T01:19:38.221Z,9.50
2018-08-10T01:22:08.095Z,8.73
2018-08-10T01:24:38.134Z,7.17
2018-08-10T01:27:11.886Z,9.90
2018-08-10T01:29:41.553Z,11.83
2018-08-10T01:32:11.460Z,9.83
2018-08-10T01:34:41.620Z,13.93
2018-08-10T01:37:11.495Z,12.37
2018-08-10T01:39:41.469Z,15.07
2018-08-10T01:42:11.747Z,9.73
2018-08-10T01:44:41.284Z,11.30
2018-08-10T01:47:11.031Z,12.20
2018-08-10T01:49:41.201Z,15.67
2018-08-10T01:52:11.949Z,9.93
2018-08-10T01:54:41.451Z,19.80
2018-08-10T01:57:11.679Z,12.00
2018-08-10T01:59:41.560Z,12.07
2018-08-10T02:02:11.032Z,12.17
2018-08-10T02:04:41.197Z,11.40
2018-08-10T02:07:10.737Z,13.10
2018-08-10T02:09:41.161Z,10.50
2018-08-10T02:12:11.721Z,9.97
2018-08-10T02:14:41.659Z,9.57
2018-08-10T02:17:11.889Z,11.33
2018-08-10T02:19:42.029Z,11.50
2018-08-10T02:22:11.861Z,7.93
2018-08-10T02:24:41.857Z,8.47
2018-08-10T02:27:11.787Z,10.30
2018-08-10T02:29:41.444Z,13.23
2018-08-10T02:32:11.320Z,11.50
2018-08-10T02:34:40.722Z,11.93
2018-08-10T02:37:10.194Z,9.47
2018-08-10T02:39:39.838Z,11.43
2018-08-10T02:42:09.788Z,11.00
2018-08-10T02:44:39.382Z,12.67
2018-08-10T02:47:09.593Z,11.07
2018-08-10T02:49:39.335Z,14.13
2018-08-10T02:52:09.014Z,9.97
2018-08-10T02:54:39.583Z,13.80
2018-08-10T02:57:09.619Z,13.73
2018-08-10T02:59:39.465Z,15.43
2018-08-10T03:02:09.664Z,16.00
2018-08-10T03:04:39.456Z,13.30
2018-08-10T03:07:08.842Z,18.70
2018-08-10T03:09:39.006Z,13.37
2018-08-10T03:12:09.316Z,13.80
2018-08-10T03:14:39.343Z,15.70
2018-08-10T03:17:09.694Z,13.30
2018-08-10T03:19:39.453Z,15.93
2018-08-10T03:22:09.278Z,15.47
2018-08-10T03:24:38.913Z,16.00
2018-08-10T03:27:08.805Z,14.93
2018-08-10T03:29:38.425Z,17.20
2018-08-10T03:32:08.556Z,22.53
2018-08-10T03:34:38.464Z,18.63
2018-08-10T03:37:08.221Z,16.80
2018-08-10T03:39:38.335Z,15.90
2018-08-10T03:42:08.183Z,14.83
2018-08-10T03:44:37.997Z,14.60
2018-08-10T03:47:08.230Z,14.43
2018-08-10T03:49:37.863Z,17.33
2018-08-10T03:52:07.877Z,13.83
2018-08-10T03:54:38.183Z,15.43
2018-08-10T03:57:07.790Z,17.40
2018-08-10T03:59:37.296Z,15.00
2018-08-10T04:02:07.456Z,18.87
2018-08-10T04:04:36.934Z,15.70
2018-08-10T04:07:06.533Z,17.10
2018-08-10T04:09:36.462Z,16.67
2018-08-10T04:12:06.615Z,18.63
2018-08-10T04:14:36.379Z,18.17
2018-08-10T04:17:10.642Z,26.73
2018-08-10T04:19:40.060Z,24.67
2018-08-10T04:22:09.997Z,22.87
2018-08-10T04:24:39.607Z,25.27
2018-08-10T04:27:09.324Z,24.23
2018-08-10T04:29:38.772Z,22.07
2018-08-10T04:32:08.307Z,30.57
2018-08-10T04:34:38.165Z,32.27
2018-08-10T04:37:08.299Z,31.97
2018-08-10T04:39:38.463Z,27.00
2018-08-10T04:42:08.233Z,24.63
2018-08-10T04:44:37.565Z,28.30
2018-08-10T04:47:07.887Z,28.00
2018-08-10T04:49:37.463Z,28.73
2018-08-10T04:52:07.325Z,29.13
2018-08-10T04:54:38.127Z,27.50
2018-08-10T04:57:07.926Z,28.13
2018-08-10T04:59:37.650Z,24.27
2018-08-10T05:02:08.724Z,23.40
2018-08-10T05:04:38.925Z,24.57
2018-08-10T05:07:08.927Z,24.47
2018-08-10T05:09:38.782Z,22.47
2018-08-10T05:12:09.573Z,19.97
2018-08-10T05:14:39.593Z,18.70
2018-08-10T05:17:10.025Z,24.50
2018-08-10T05:19:39.775Z,25.87
2018-08-10T05:22:09.800Z,19.33
2018-08-10T05:24:39.527Z,18.53
2018-08-10T05:27:09.386Z,20.27
2018-08-10T05:29:38.979Z,23.33
2018-08-10T05:32:09.080Z,22.57
2018-08-10T05:34:38.743Z,21.90
2018-08-10T05:37:08.713Z,20.27
2018-08-10T05:39:38.511Z,28.67
2018-08-10T05:42:08.146Z,24.63
2018-08-10T05:44:37.795Z,19.80
2018-08-10T05:47:07.801Z,22.80
2018-08-10T05:49:37.281Z,21.37
2018-08-10T05:52:06.992Z,22.83
2018-08-10T05:54:36.922Z,20.60
2018-08-10T05:57:06.810Z,22.67
2018-08-10T05:59:36.533Z,23.70
2018-08-10T06:02:06.568Z,20.50
2018-08-10T06:04:36.536Z,17.43
2018-08-10T06:07:05.893Z,23.93
2018-08-10T06:09:35.998Z,19.43
2018-08-10T06:12:05.642Z,21.47
2018-08-10T06:14:35.497Z,23.50
2018-08-10T06:17:05.626Z,23.13
2018-08-10T06:19:35.033Z,18.97
2018-08-10T06:22:04.792Z,20.57
2018-08-10T06:24:34.347Z,17.87
2018-08-10T06:27:03.962Z,21.23
2018-08-10T06:29:33.862Z,19.90
2018-08-10T06:32:04.034Z,19.43
2018-08-10T06:34:33.712Z,20.13
2018-08-10T06:37:03.369Z,19.57
2018-08-10T06:39:33.159Z,23.43
2018-08-10T06:42:02.777Z,18.67
2018-08-10T06:44:32.355Z,23.63
2018-08-10T06:47:01.918Z,22.83
2018-08-10T06:49:31.362Z,20.53
2018-08-10T06:52:00.971Z,18.00
2018-08-10T06:54:30.907Z,20.67
2018-08-10T06:57:00.646Z,18.80
2018-08-10T06:59:30.320Z,20.10
2018-08-10T07:02:00.071Z,21.90
2018-08-10T07:04:29.538Z,18.10
2018-08-10T07:06:59.219Z,18.57
2018-08-10T07:09:29.143Z,20.53
2018-08-10T07:11:59.013Z,20.40
2018-08-10T07:14:28.458Z,18.93
2018-08-10T07:16:58.076Z,19.17
2018-08-10T07:19:27.670Z,18.00
2018-08-10T07:21:57.501Z,17.80
2018-08-10T07:24:27.052Z,16.27
2018-08-10T07:26:56.468Z,14.83
2018-08-10T07:29:26.242Z,13.50
2018-08-10T07:31:55.649Z,11.93
2018-08-10T07:34:25.548Z,13.43
2018-08-10T07:36:55.414Z,10.07
2018-08-10T07:39:25.503Z,12.83
2018-08-10T07:41:55.071Z,9.20
2018-08-10T07:44:24.990Z,13.03
2018-08-10T07:46:54.536Z,8.93
2018-08-10T07:49:24.121Z,11.27
2018-08-10T07:51:53.839Z,12.50
2018-08-10T07:54:23.949Z,16.17
2018-08-10T07:56:53.520Z,10.17
2018-08-10T07:59:22.973Z,6.93
2018-08-10T08:01:52.645Z,12.50
2018-08-10T08:04:22.343Z,8.27
2018-08-10T08:06:51.827Z,15.00
2018-08-10T08:09:21.823Z,8.73
2018-08-10T08:11:51.822Z,10.17
2018-08-10T08:14:21.431Z,8.27
2018-08-10T08:16:51.246Z,8.83
2018-08-10T08:19:20.788Z,9.43
2018-08-10T08:22:23.805Z,9.13
2018-08-10T08:24:53.168Z,5.57
2018-08-10T08:27:22.640Z,7.83
2018-08-10T08:29:52.423Z,4.83
2018-08-10T08:32:22.005Z,9.30
2018-08-10T08:34:51.929Z,9.43
2018-08-10T08:37:21.783Z,5.10
2018-08-10T08:40:09.244Z,3.60
2018-08-10T08:42:39.167Z,4.70
2018-08-10T08:46:12.422Z,7.23
2018-08-10T08:48:44.837Z,7.20
2018-08-10T08:51:16.848Z,7.17
2018-08-10T08:53:46.837Z,5.83
2018-08-10T08:56:17.739Z,6.30
2018-08-10T08:58:48.818Z,9.73
2018-08-10T09:01:18.797Z,6.27
2018-08-10T09:04:58.993Z,4.77
2018-08-10T09:07:29.241Z,7.10
2018-08-10T09:09:59.299Z,6.63
2018-08-10T09:12:29.353Z,5.40
2018-08-10T09:15:06.421Z,6.47
2018-08-10T09:17:36.956Z,9.50
2018-08-10T09:20:07.208Z,6.83
2018-08-10T09:22:37.077Z,5.77
2018-08-10T09:25:09.882Z,4.10
2018-08-10T09:27:39.357Z,5.23
2018-08-10T09:30:10.293Z,9.17
2018-08-10T09:32:40.543Z,5.23
2018-08-10T09:35:10.948Z,8.17
2018-08-10T09:37:41.335Z,5.97
2018-08-10T09:40:14.919Z,11.87
2018-08-10T09:42:45.167Z,5.63
2018-08-10T09:45:15.595Z,8.10
2018-08-10T09:47:46.603Z,5.83
2018-08-10T09:50:16.950Z,5.83
2018-08-10T09:52:57.705Z,7.33
2018-08-10T09:55:34.151Z,8.27
2018-08-10T09:58:10.125Z,6.17
2018-08-10T10:00:45.040Z,4.77
2018-08-10T10:03:23.170Z,5.90
2018-08-10T10:05:53.793Z,6.17
2018-08-10T10:08:24.433Z,3.30
2018-08-10T10:10:54.003Z,5.07
2018-08-10T10:13:23.596Z,4.80
2018-08-10T10:15:53.677Z,5.20
2018-08-10T10:18:23.094Z,4.77
2018-08-10T10:20:52.615Z,4.90
2018-08-10T10:23:22.354Z,4.03
2018-08-10T10:25:52.089Z,8.27
2018-08-10T10:28:21.681Z,8.33
2018-08-10T10:30:51.895Z,5.30
2018-08-10T10:33:21.430Z,3.90
2018-08-10T10:35:51.035Z,6.57
2018-08-10T10:38:20.793Z,6.83
2018-08-10T10:40:50.551Z,6.97
2018-08-10T10:43:20.267Z,10.37
2018-08-10T10:45:50.307Z,8.97
2018-08-10T10:48:20.181Z,10.53
2018-08-10T10:50:49.743Z,7.80
2018-08-10T10:53:19.531Z,7.10
2018-08-10T10:55:49.044Z,9.43
2018-08-10T10:58:18.622Z,9.30
2018-08-10T11:00:48.945Z,6.77
2018-08-10T11:03:18.548Z,7.07
2018-08-10T11:05:48.027Z,7.20
2018-08-10T11:08:17.990Z,10.00
2018-08-10T11:10:47.498Z,6.87
2018-08-10T11:13:17.200Z,6.17
2018-08-10T11:15:47.249Z,9.83
2018-08-10T11:18:16.770Z,6.10
2018-08-10T11:20:46.421Z,8.87
2018-08-10T11:23:16.792Z,4.83
2018-08-10T11:25:46.559Z,4.30
2018-08-10T11:28:15.981Z,4.40
2018-08-10T11:30:45.701Z,7.20
2018-08-10T11:33:15.764Z,10.43
2018-08-10T11:35:45.457Z,10.40
2018-08-10T11:38:17.041Z,4.17
2018-08-10T11:40:47.455Z,5.13
2018-08-10T11:43:19.454Z,4.83
2018-08-10T11:45:49.485Z,4.23
2018-08-10T11:48:19.492Z,5.23
2018-08-10T11:50:50.003Z,6.37
2018-08-10T11:53:19.477Z,9.60
2018-08-10T11:55:48.962Z,4.93
2018-08-10T11:58:19.080Z,6.07
2018-08-10T12:00:48.866Z,4.13
2018-08-10T12:03:18.699Z,4.77
2018-08-10T12:05:48.729Z,5.47
2018-08-10T12:08:19.116Z,2.93
2018-08-10T12:10:49.222Z,7.30
2018-08-10T12:13:19.383Z,4.50
2018-08-10T12:15:48.934Z,7.10
2018-08-10T12:18:18.884Z,8.23
2018-08-10T12:20:49.280Z,4.67
2018-08-10T12:23:19.058Z,5.67
2018-08-10T12:25:49.211Z,5.20
2018-08-10T12:28:19.234Z,4.70
2018-08-10T12:30:48.781Z,4.97
2018-08-10T12:33:18.758Z,7.53
2018-08-10T12:35:48.744Z,4.63
2018-08-10T12:38:18.564Z,7.27
2018-08-10T12:40:48.282Z,6.80
2018-08-10T12:43:18.321Z,5.27
2018-08-10T12:45:48.368Z,5.73
2018-08-10T12:48:18.300Z,4.37
2018-08-10T12:50:47.984Z,7.73
2018-08-10T12:53:18.033Z,6.20
2018-08-10T12:55:48.051Z,10.40
2018-08-10T12:58:17.747Z,7.00
2018-08-10T13:00:47.173Z,2.80
2018-08-10T13:03:17.158Z,6.70
2018-08-10T13:05:47.388Z,6.40
2018-08-10T13:08:16.978Z,5.73
2018-08-10T13:10:46.929Z,4.83
2018-08-10T13:13:17.037Z,7.43
2018-08-10T13:15:46.415Z,3.97
2018-08-10T13:18:16.374Z,3.43
2018-08-10T13:20:46.332Z,13.33
2018-08-10T13:23:16.142Z,3.67
2018-08-10T13:25:45.797Z,2.67
2018-08-10T13:28:15.658Z,4.80
2018-08-10T13:30:45.141Z,3.10
2018-08-10T13:33:14.744Z,6.77
2018-08-10T13:35:44.977Z,4.07
2018-08-10T13:38:14.716Z,4.20
2018-08-10T13:40:44.823Z,6.23
2018-08-10T13:43:14.552Z,11.20
2018-08-10T13:45:43.997Z,3.27
2018-08-10T13:48:13.502Z,6.50
2018-08-10T13:50:43.675Z,4.83
2018-08-10T13:53:13.302Z,9.73
2018-08-10T13:55:43.070Z,7.60
2018-08-10T13:58:13.548Z,9.40
2018-08-10T14:00:43.209Z,7.60
2018-08-10T14:03:13.000Z,4.03
2018-08-10T14:05:42.492Z,5.07
2018-08-10T14:08:11.929Z,8.40
2018-08-10T14:10:41.754Z,4.67
2018-08-10T14:13:11.227Z,6.97
2018-08-10T14:15:41.021Z,5.60
2018-08-10T14:18:11.027Z,2.90
2018-08-10T14:20:40.701Z,6.10
2018-08-10T14:23:10.373Z,4.70
2018-08-10T14:25:40.202Z,4.77
2018-08-10T14:28:10.222Z,5.40
2018-08-10T14:30:39.834Z,4.37
2018-08-10T14:33:09.384Z,10.33
2018-08-10T14:35:38.973Z,4.37
2018-08-10T14:38:08.875Z,5.57
2018-08-10T14:40:38.478Z,6.80
2018-08-10T14:43:08.012Z,6.37
2018-08-10T14:45:37.457Z,10.03
2018-08-10T14:48:07.000Z,5.53
2018-08-10T14:50:36.643Z,3.60
2018-08-10T14:53:06.324Z,5.47
2018-08-10T14:55:36.030Z,4.90
2018-08-10T14:58:06.383Z,6.03
2018-08-10T15:00:36.049Z,3.20
2018-08-10T15:03:05.818Z,6.00
2018-08-10T15:05:35.417Z,6.67
2018-08-10T15:08:04.798Z,3.00
2018-08-10T15:10:34.389Z,8.27
2018-08-10T15:13:04.693Z,3.23
2018-08-10T15:15:33.898Z,3.77
2018-08-10T15:18:03.521Z,4.53
2018-08-10T15:20:33.456Z,7.53
2018-08-10T15:23:03.060Z,7.23
2018-08-10T15:25:32.694Z,3.97
2018-08-10T15:28:02.993Z,7.57
2018-08-10T15:30:32.641Z,7.60
2018-08-10T15:33:02.326Z,7.33
2018-08-10T15:35:32.552Z,3.87
2018-08-10T15:38:02.349Z,3.50
2018-08-10T15:40:31.933Z,5.03
2018-08-10T15:43:01.579Z,4.87
2018-08-10T15:45:31.063Z,5.73
2018-08-10T15:48:00.743Z,6.30
2018-08-10T15:50:30.859Z,9.63
2018-08-10T15:53:00.293Z,3.50
2018-08-10T15:55:29.716Z,10.93
2018-08-10T15:58:00.049Z,2.17
2018-08-10T16:00:29.711Z,5.23
2018-08-10T16:02:59.328Z,4.57
2018-08-10T16:05:29.628Z,3.87
2018-08-10T16:07:59.141Z,69.73
2018-08-10T16:10:28.943Z,21.23
2018-08-10T16:12:58.831Z,9.10
2018-08-10T16:15:28.519Z,3.73
2018-08-10T16:17:58.417Z,4.27
2018-08-10T16:20:28.565Z,6.57
2018-08-10T16:22:58.271Z,6.67
2018-08-10T16:25:27.979Z,6.53
2018-08-10T16:27:58.338Z,6.23
2018-08-10T16:30:27.929Z,9.40
2018-08-10T16:32:57.988Z,6.37
2018-08-10T16:35:27.649Z,5.67
2018-08-10T16:37:57.230Z,2.73
2018-08-10T16:40:26.746Z,4.53
2018-08-10T16:42:56.681Z,4.97
2018-08-10T16:45:26.253Z,6.17
2018-08-10T16:47:55.921Z,6.93
2018-08-10T16:50:25.833Z,7.03
2018-08-10T16:52:55.513Z,5.17
2018-08-10T16:55:25.102Z,6.30
2018-08-10T16:57:54.743Z,4.53
2018-08-10T17:00:24.186Z,12.67
2018-08-10T17:02:53.659Z,24.33
2018-08-10T17:05:23.845Z,5.37
2018-08-10T17:07:53.441Z,7.77
2018-08-10T17:10:23.011Z,8.10
2018-08-10T17:12:53.114Z,5.23
2018-08-10T17:15:22.871Z,2.93
2018-08-10T17:17:52.362Z,4.60
2018-08-10T17:20:21.912Z,4.47
2018-08-10T17:22:51.626Z,2.47
2018-08-10T17:25:22.037Z,2.53
2018-08-10T17:27:52.037Z,6.30
2018-08-10T17:30:22.048Z,2.57
2018-08-10T17:32:51.715Z,6.13
2018-08-10T17:35:21.817Z,4.53
2018-08-10T17:37:51.663Z,5.37
2018-08-10T17:40:22.094Z,5.77
2018-08-10T17:42:52.095Z,8.47
2018-08-10T17:45:22.068Z,10.13
2018-08-10T17:47:52.100Z,9.17
2018-08-10T17:50:22.419Z,9.60
2018-08-10T17:52:53.746Z,7.53
2018-08-10T17:55:23.954Z,7.57
2018-08-10T17:57:53.830Z,7.80
2018-08-10T18:00:26.582Z,5.83
2018-08-10T18:02:56.165Z,4.63
2018-08-10T18:05:28.307Z,4.60
2018-08-10T18:07:58.121Z,6.17
2018-08-10T18:10:27.550Z,10.80
2018-08-10T18:12:57.698Z,6.63
2018-08-10T18:15:27.430Z,4.10
2018-08-10T18:17:56.938Z,5.67
2018-08-10T18:20:27.103Z,5.47
2018-08-10T18:22:56.720Z,8.17
2018-08-10T18:25:26.181Z,3.80
2018-08-10T18:27:56.452Z,6.67
2018-08-10T18:30:26.629Z,6.30
2018-08-10T18:32:56.141Z,7.57
2018-08-10T18:35:26.221Z,6.93
2018-08-10T18:37:55.926Z,6.17
2018-08-10T18:40:25.574Z,8.83
2018-08-10T18:42:55.666Z,9.10
2018-08-10T18:45:25.283Z,7.93
2018-08-10T18:47:54.732Z,5.90
2018-08-10T18:50:25.069Z,7.97
2018-08-10T18:52:54.628Z,7.87
2018-08-10T18:55:24.450Z,7.70
2018-08-10T18:57:54.685Z,6.30
2018-08-10T19:00:25.852Z,8.43
2018-08-10T19:02:56.133Z,5.23
2018-08-10T19:05:25.863Z,8.97
2018-08-10T19:07:55.666Z,9.90
2018-08-10T19:10:27.094Z,4.83
2018-08-10T19:12:56.697Z,4.10
2018-08-10T19:15:26.226Z,8.47
2018-08-10T19:17:56.360Z,5.23
2018-08-10T19:20:26.246Z,6.10
2018-08-10T19:22:55.770Z,12.03
2018-08-10T19:25:26.128Z,7.33
2018-08-10T19:27:55.947Z,6.10
2018-08-10T19:30:25.779Z,5.50
2018-08-10T19:32:55.427Z,5.53
2018-08-10T19:35:25.203Z,4.97
2018-08-10T19:37:54.817Z,6.17
2018-08-10T19:40:24.169Z,5.87
2018-08-10T19:42:53.517Z,4.60
2018-08-10T19:45:23.266Z,5.00
2018-08-10T19:47:53.222Z,5.80
2018-08-10T19:50:23.549Z,6.57
2018-08-10T19:52:54.506Z,5.00
2018-08-10T19:55:24.583Z,9.30
2018-08-10T19:57:54.152Z,8.73
2018-08-10T20:00:24.299Z,7.87
2018-08-10T20:02:53.861Z,4.80
2018-08-10T20:05:23.398Z,4.97
2018-08-10T20:07:53.138Z,6.30
2018-08-10T20:10:22.741Z,4.90
2018-08-10T20:12:52.293Z,5.07
2018-08-10T20:15:22.382Z,7.40
2018-08-10T20:17:52.057Z,3.00
2018-08-10T20:20:21.823Z,5.10
2018-08-10T20:22:51.805Z,5.33
2018-08-10T20:25:22.129Z,6.80
2018-08-10T20:27:51.840Z,6.73
2018-08-10T20:30:21.650Z,8.10
2018-08-10T20:32:51.587Z,5.03
2018-08-10T20:35:21.291Z,3.70
2018-08-10T20:37:51.425Z,7.23
2018-08-10T20:40:21.418Z,3.77
2018-08-10T20:42:51.597Z,14.40
2018-08-10T20:45:23.883Z,5.03
2018-08-10T20:47:53.882Z,6.17
2018-08-10T20:50:25.136Z,8.50
2018-08-10T21:10:17.062Z,4.33
2018-08-10T21:12:47.631Z,3.67
2018-08-10T21:15:17.608Z,6.23
2018-08-10T21:35:10.175Z,5.40
2018-08-10T21:37:40.145Z,7.67
2018-08-10T21:40:10.637Z,7.07
2018-08-10T21:42:41.061Z,6.63
2018-08-10T21:45:10.833Z,5.53
2018-08-10T21:47:40.583Z,4.20
2018-08-10T21:50:13.973Z,4.77
2018-08-10T21:52:45.530Z,5.90
2018-08-10T22:29:59.869Z,3.20
2018-08-10T22:32:29.848Z,3.93
2018-08-10T22:34:59.450Z,9.47
2018-08-10T22:37:28.894Z,5.23
2018-08-10T22:39:58.976Z,7.27
2018-08-10T22:42:28.765Z,7.40
2018-08-10T22:44:58.455Z,11.93
2018-08-10T22:47:28.794Z,15.10
2018-08-10T22:49:58.328Z,6.33
2018-08-10T22:52:28.154Z,6.90
2018-08-10T22:54:58.363Z,4.73
2018-08-10T22:57:27.889Z,4.17
2018-08-10T22:59:57.440Z,7.83
2018-08-10T23:02:27.216Z,5.53
2018-08-10T23:04:57.804Z,3.30
2018-08-10T23:07:27.360Z,7.10
2018-08-10T23:09:57.558Z,7.43
2018-08-10T23:12:27.027Z,8.63
2018-08-10T23:14:56.642Z,4.23
2018-08-10T23:17:26.485Z,6.20
2018-08-10T23:19:56.076Z,7.93
2018-08-10T23:22:26.511Z,7.50
2018-08-10T23:24:56.216Z,5.90
2018-08-10T23:27:25.938Z,5.40
2018-08-10T23:29:55.575Z,9.70
2018-08-10T23:49:46.538Z,5.57
2018-08-10T23:52:16.205Z,7.13
2018-08-10T23:54:46.072Z,6.73
2018-08-10T23:57:15.777Z,4.00
2018-08-10T23:59:45.602Z,7.90
